Skip to main content

NOAA/GLERL Met Station at Michigan City, IN

Previous 3 Hours (2 minute increments)
See also Previous 5 Days (top of hour)
Jump down to Data
Switch to [English][Metric]
Zoom: Click and drag, Pan: shift-click and drag, Unzoom: double-click, Unzoom All





See also 1-day windrose plot


NOAA/GLERL Met Station at Michigan City, IN

Previous 3 Hours (2 minute increments)
See also Previous 5 Days (top of hour only)
Jump up to Graphs
Switch to [English][Metric]
                  Wind  Wind  Wind   Air   Dew   Rel     Sta   PAR
                   Spd   Gst   Dir  Temp    Pt   Hum    Pres uE/m2/
YYYY-MM-DD   CDT   m/s   m/s   deg     C     C     %      mb   sec
2018-09-26 04:36  14.4  16.2   290  15.5  11.4  76.5    0.00     0
2018-09-26 04:34  13.8  15.1   295  15.4  11.2  76.0    0.00     0
2018-09-26 04:32  14.3  15.9   294  15.5  11.6  77.3    0.00     0
2018-09-26 04:30  14.2  15.9   296  15.5  11.6  77.4    0.00     0
2018-09-26 04:28  14.9  16.2   292  15.6  11.7  77.3    0.00     0
2018-09-26 04:26  13.4  15.8   295  15.5  11.5  76.9    0.00     0
2018-09-26 04:24  13.9  15.7   298  15.6  11.7  77.2    0.00     0
2018-09-26 04:22  14.6  15.8   298  15.7  11.6  76.5    0.00     0
2018-09-26 04:20  14.2  15.7   296  15.7  11.5  76.0    0.00     0
2018-09-26 04:18  14.2  15.4   300  15.7  11.4  75.2    0.00     0
2018-09-26 04:16  14.5  15.6   302  15.6  11.2  75.0    0.00     0
2018-09-26 04:14  15.2  17.3   300  15.6  11.0  74.0    0.00     0
2018-09-26 04:12  14.5  16.8   299  15.7  11.5  75.6    0.00     0
2018-09-26 04:10  15.2  17.3   299  15.7  11.3  74.7    0.00     0
2018-09-26 04:08  15.3  16.7   303  15.9  12.1  78.1    0.00     0
2018-09-26 04:06  15.4  17.2   301  15.9  12.2  78.5    0.00     0
2018-09-26 04:04  13.4  15.5   306  16.0  12.7  80.3    0.00     0
2018-09-26 04:02  13.6  15.2   310  15.9  12.1  77.9    0.00     0
2018-09-26 04:00  14.1  15.6   310  15.9  12.1  77.9    0.00     0
2018-09-26 03:58  14.8  15.7   311  16.0  12.3  78.3    0.00     0
2018-09-26 03:56  13.1  14.7   311  16.0  12.4  78.8    0.00     0
2018-09-26 03:54  13.0  15.1   308  16.2  12.5  78.7    0.00     0
2018-09-26 03:52  11.5  13.7   297  16.2  12.7  79.4    0.00     0
2018-09-26 03:50  13.0  14.4   303  16.2  12.7  79.3    0.00     0
2018-09-26 03:48  12.2  13.2   300  16.2  12.5  78.5    0.00     0
2018-09-26 03:46  11.3  13.6   294  16.3  12.7  78.8    0.00     0
2018-09-26 03:44  10.9  12.3   298  16.4  12.9  79.8    0.00     0
2018-09-26 03:42  11.0  13.1   296  16.3  13.1  81.1    0.00     0
2018-09-26 03:40  11.9  13.4   299  16.2  12.6  78.9    0.00     0
2018-09-26 03:38  11.9  13.6   296  16.3  13.2  81.8    0.00     0
2018-09-26 03:36  12.9  14.0   308  16.2  13.2  82.1    0.00     0
2018-09-26 03:34  12.7  14.0   308  16.1  13.0  81.9    0.00     0
2018-09-26 03:32  13.9  15.3   297  16.3  13.1  81.1    0.00     0
2018-09-26 03:30  13.9  15.3   296  16.4  13.3  81.8    0.00     0
2018-09-26 03:28  13.5  15.7   311  16.3  13.3  82.1    0.00     0
2018-09-26 03:26  14.7  16.3   308  16.2  12.8  80.2    0.00     0
2018-09-26 03:24  13.6  14.9   303  16.3  13.1  81.1    0.00     0
2018-09-26 03:22  13.8  15.0   306  16.3  13.2  81.5    0.00     0
2018-09-26 03:20  14.0  15.4   310  16.3  13.1  80.9    0.00     0
2018-09-26 03:18  14.9  17.4   313  16.2  13.1  81.8    0.00     0
2018-09-26 03:16  14.7  16.6   307  16.2  12.9  80.7    0.00     0
2018-09-26 03:14  14.1  15.7   305  16.2  13.2  82.1    0.00     0
2018-09-26 03:12  14.0  16.1   305  16.2  13.2  82.0    0.00     0
2018-09-26 03:10  14.7  16.2   313  16.3  13.4  82.5    0.00     0
2018-09-26 03:08  14.2  15.7   305  16.3  13.2  81.8    0.00     0
2018-09-26 03:06  13.7  15.2   310  16.4  13.6  83.1    0.00     0
2018-09-26 03:04  14.7  16.4   317  16.3  13.1  81.2    0.00     0
2018-09-26 03:02  14.7  15.9   309  16.4  13.1  80.7    0.00     0
2018-09-26 03:00  13.5  15.4   312  16.5  13.6  82.6    0.00     0
2018-09-26 02:58  14.4  16.3   315  16.5  13.4  81.7    0.00     0
2018-09-26 02:56  14.9  16.4   314  16.5  13.1  80.0    0.00     0
2018-09-26 02:54  15.0  16.5   318  16.5  13.3  81.2    0.00     0
2018-09-26 02:52  14.8  15.9   317  16.5  13.4  81.8    0.00     0
2018-09-26 02:50  14.6  15.8   316  16.6  13.6  82.5    0.00     0
2018-09-26 02:48  14.5  15.7   321  16.7  13.9  83.6    0.00     0
2018-09-26 02:46  14.7  15.8   317  16.9  14.0  82.6    0.00     0
2018-09-26 02:44  14.0  15.8   316  17.0  14.1  82.6    0.00     0
2018-09-26 02:42  13.7  15.2   311  17.1  14.0  81.9    0.00     0
2018-09-26 02:40  12.8  14.2   301  17.2  14.2  82.2    0.00     0
2018-09-26 02:38  12.9  14.6   303  17.2  14.2  82.1    0.00     0
2018-09-26 02:36  13.8  15.8   316  17.3  14.3  82.2    0.00     0
2018-09-26 02:34  12.9  14.5   313  17.2  14.1  81.9    0.00     0
2018-09-26 02:32  14.0  15.1   316  17.3  14.1  81.0    0.00     0
2018-09-26 02:30  13.4  14.6   315  17.3  14.1  81.1    0.00     0
2018-09-26 02:28  12.0  13.5   321  17.4  14.6  83.5    0.00     0
2018-09-26 02:26  13.7  15.1   322  17.4  14.3  81.6    0.00     0
2018-09-26 02:24  12.7  14.1   319  17.5  14.3  81.1    0.00     0
2018-09-26 02:22  13.5  14.2   316  17.5  14.1  80.2    0.00     0
2018-09-26 02:20  13.7  14.5   312  17.5  14.1  80.0    0.00     0
2018-09-26 02:18  13.2  14.2   315  17.6  14.1  79.7    0.00     0
2018-09-26 02:16  13.3  14.4   311  17.7  14.4  80.6    0.00     0
2018-09-26 02:14  12.1  13.4   311  17.7  14.6  81.7    0.00     0
2018-09-26 02:12  13.0  14.6   309  17.8  14.4  80.4    0.00     0
2018-09-26 02:10  12.9  14.6   316  17.8  14.8  82.1    0.00     0
2018-09-26 02:08  12.7  14.0   312  17.8  14.8  82.3    0.00     0
2018-09-26 02:06  13.2  15.0   317  17.9  14.8  81.6    0.00     0
2018-09-26 02:04  12.1  13.2   317  17.9  14.8  81.9    0.00     0
2018-09-26 02:02  13.2  14.7   311  17.9  14.4  79.8    0.00     0
2018-09-26 02:00  13.5  14.7   305  17.9  14.4  79.8    0.00     0
2018-09-26 01:58  13.7  15.1   308  17.9  14.4  79.9    0.00     0
2018-09-26 01:56  13.2  14.4   305  17.9  14.4  79.9    0.00     0
2018-09-26 01:54  12.9  14.6   310  18.0  14.7  80.7    0.00     0
2018-09-26 01:52  12.5  14.1   306  18.0  14.9  81.8    0.00     0
2018-09-26 01:50  12.9  15.0   310  18.0  14.9  81.9    0.00     0
2018-09-26 01:48  13.5  14.8   309  18.0  14.8  81.2    0.00     0
2018-09-26 01:46  12.2  13.1   309  18.1  15.3  83.3    0.00     0
2018-09-26 01:44  12.8  13.6   304  18.1  15.1  82.2    0.00     0
2018-09-26 01:42  12.2  13.9   306  18.2  15.4  83.5    0.00     0
2018-09-26 01:40  12.4  13.5   314  18.2  15.3  83.0    0.00     0
2018-09-26 01:38  12.4  13.8   307  18.3  15.4  83.0    0.00     0
2018-09-26 01:36  10.7  12.1   307  18.4  15.5  82.9    0.00     0